Airfield :
LOGIN :

Register | Disclaimer

   EN    FR    IT 

 










Legend :    VFR   Marginal VFR   IFR   Intensive IFR   Very Intensive IFR
Visi :
Ceiling :
>= 8 km
>= 3000ft
5 to 8 km
1000 to 3000 ft
1500m to 5 km
500 to 1000 ft
800 to 1500m
200 to 500 ft
< 800m
< 200 ft
Symbols :   Thunderstorms  Fog  Heavy snow  Heavy precipitations  Wind > 20 kt
SIGMETs :     Misc.  Thunderstorms  Icing  Turbulence  Mountain Waves  Volcanic Ashes







- Airport Elevation : 74 ft
- IATA code : EIN


EHEH - Eindhoven

CURRENT METAR :
  • 210815Z AUTO 09004KT 050V140 9000 BR FEW022 BKN039 OVC052 03/01 Q1015 BLU 08005KT 9999 SCT022 BKN040

EXPIRED METARs :
  • 210801Z AUTO 08004KT 040V110 9000 BR BKN022 BKN039 OVC052 03/01 Q1015 WHT 08005KT 9999 BKN022 BKN040
  • 210755Z AUTO 08005KT 8000 BR FEW022 SCT039 OVC050 03/01 Q1015 BLU 08006KT 8000 -RA FEW020 SCT025 BKN040
  • 210725Z AUTO 08005KT 060V120 8000 BR BKN023 BKN041 OVC045 02/01 Q1014 WHT 08006KT 8000 -RA FEW020 SCT025 BKN040
  • 210706Z AUTO 08005KT 050V110 8000 BR BKN023 OVC044 02/01 Q1014 WHT 08006KT 8000 -RA FEW020 SCT025 BKN040
  • 210702Z AUTO 08005KT 040V110 8000 BR SCT023 OVC044 02/01 Q1014 WHT 08006KT 8000 -RA FEW020 SCT025 BKN040
  • 210655Z AUTO 08006KT 040V100 8000 BR OVC045 02/01 Q1013 BLU 08006KT 8000 -RA FEW020 SCT025 BKN040
  • 210625Z AUTO 08005KT 050V120 7000 -DZ BKN039 OVC044 02/01 Q1013 REDZ WHT 08006KT 8000 -RA FEW020 SCT025 BKN040
  • 210556Z AUTO 08007KT 7000 -RA FEW015CB BKN038 OVC042 03/01 Q1013 WHT 08006KT 8000 -RA FEW020 SCT025 BKN040
  • 210551Z AUTO 07007KT 7000 -RA FEW015CB SCT038 OVC044 03/01 Q1013 WHT 08006KT 8000 -RA FEW020 SCT025 BKN040
  • 210543Z AUTO 07007KT 8000 -DZ FEW015CB BKN044 OVC048 03/01 Q1013 BLU 08005KT 8000 -RA FEW020 SCT025 BKN040
  • 210535Z AUTO 06006KT 8000 -DZ FEW022 BKN041 OVC046 03/01 Q1013 BLU 08005KT 8000 -RA FEW020 SCT025 BKN040

TAF TAF EHEH
Valid from the 21 at 06:00 until the 22 at 12:00 UTC


210610Z 2106/2212 08006KT CAVOK
PROB30 2106/2108 SCT022 BKN040
No reported NOTAMs for that airfield.



MET'MAP, your aeronautical weather chart ! - Copyright ORBIFLY December 2007 - Disclaimer

ORBIFLY MET'MAP TEAM :

Programming & Development : Alexandra Zaïnal
Concept & Development : Baudouin d'Aumeries
Co-Development & Prog : Marc-Olivier Méhu
Technical & hardware support : Manuel Goepfert

Contact : metmap@orbifly.com




SOURCES & CREDITS :

   NOAA